sensor_id;sensor_type;location;lat;lon;timestamp;P1;durP1;ratioP1;P2;durP2;ratioP2
11535;SDS011;5824;49.336;8.652;2023-02-03T00:00:48;6.33;;;2.80;;
11535;SDS011;5824;49.336;8.652;2023-02-03T00:03:13;6.63;;;2.93;;
11535;SDS011;5824;49.336;8.652;2023-02-03T00:05:39;8.63;;;3.33;;
11535;SDS011;5824;49.336;8.652;2023-02-03T00:08:06;9.40;;;2.53;;
11535;SDS011;5824;49.336;8.652;2023-02-03T00:10:33;7.30;;;2.60;;
11535;SDS011;5824;49.336;8.652;2023-02-03T00:13:00;6.20;;;3.07;;
11535;SDS011;5824;49.336;8.652;2023-02-03T00:15:25;10.00;;;3.90;;
11535;SDS011;5824;49.336;8.652;2023-02-03T00:17:51;4.80;;;2.57;;
11535;SDS011;5824;49.336;8.652;2023-02-03T00:20:16;6.67;;;2.60;;
11535;SDS011;5824;49.336;8.652;2023-02-03T00:22:42;10.53;;;3.17;;
11535;SDS011;5824;49.336;8.652;2023-02-03T00:25:08;5.40;;;2.80;;
11535;SDS011;5824;49.336;8.652;2023-02-03T00:27:33;7.67;;;3.20;;
11535;SDS011;5824;49.336;8.652;2023-02-03T00:29:59;4.43;;;2.70;;
11535;SDS011;5824;49.336;8.652;2023-02-03T00:32:24;12.47;;;3.50;;
11535;SDS011;5824;49.336;8.652;2023-02-03T00:34:50;8.07;;;3.33;;
11535;SDS011;5824;49.336;8.652;2023-02-03T00:37:15;5.73;;;2.73;;
11535;SDS011;5824;49.336;8.652;2023-02-03T00:39:41;6.33;;;2.87;;
11535;SDS011;5824;49.336;8.652;2023-02-03T00:42:06;7.80;;;3.00;;
11535;SDS011;5824;49.336;8.652;2023-02-03T00:44:32;6.40;;;3.00;;
11535;SDS011;5824;49.336;8.652;2023-02-03T00:46:58;6.07;;;2.83;;
11535;SDS011;5824;49.336;8.652;2023-02-03T00:49:23;6.07;;;2.77;;
11535;SDS011;5824;49.336;8.652;2023-02-03T00:51:49;5.53;;;3.23;;
11535;SDS011;5824;49.336;8.652;2023-02-03T00:54:15;8.27;;;2.73;;
11535;SDS011;5824;49.336;8.652;2023-02-03T00:56:41;6.83;;;4.20;;
11535;SDS011;5824;49.336;8.652;2023-02-03T00:59:06;8.40;;;3.33;;
11535;SDS011;5824;49.336;8.652;2023-02-03T01:01:32;6.47;;;3.10;;
11535;SDS011;5824;49.336;8.652;2023-02-03T01:03:58;8.60;;;3.20;;
11535;SDS011;5824;49.336;8.652;2023-02-03T01:06:24;6.03;;;3.30;;
11535;SDS011;5824;49.336;8.652;2023-02-03T01:08:50;6.00;;;3.27;;
11535;SDS011;5824;49.336;8.652;2023-02-03T01:11:17;5.60;;;2.87;;
11535;SDS011;5824;49.336;8.652;2023-02-03T01:13:45;4.40;;;2.90;;
11535;SDS011;5824;49.336;8.652;2023-02-03T01:16:11;12.03;;;3.10;;
11535;SDS011;5824;49.336;8.652;2023-02-03T01:18:40;4.10;;;2.83;;
11535;SDS011;5824;49.336;8.652;2023-02-03T01:23:33;3.80;;;2.97;;
11535;SDS011;5824;49.336;8.652;2023-02-03T01:26:04;5.60;;;2.70;;
11535;SDS011;5824;49.336;8.652;2023-02-03T01:28:31;5.23;;;3.10;;
11535;SDS011;5824;49.336;8.652;2023-02-03T01:30:57;10.77;;;3.10;;
11535;SDS011;5824;49.336;8.652;2023-02-03T01:33:32;4.73;;;2.80;;
11535;SDS011;5824;49.336;8.652;2023-02-03T01:35:59;5.23;;;3.27;;
11535;SDS011;5824;49.336;8.652;2023-02-03T01:38:24;4.80;;;3.10;;
11535;SDS011;5824;49.336;8.652;2023-02-03T01:40:50;4.00;;;2.23;;
11535;SDS011;5824;49.336;8.652;2023-02-03T01:43:32;5.43;;;3.10;;
11535;SDS011;5824;49.336;8.652;2023-02-03T01:46:04;6.30;;;2.97;;
11535;SDS011;5824;49.336;8.652;2023-02-03T01:48:39;6.30;;;2.83;;
11535;SDS011;5824;49.336;8.652;2023-02-03T01:51:05;4.00;;;2.63;;
11535;SDS011;5824;49.336;8.652;2023-02-03T01:53:31;4.73;;;2.80;;
11535;SDS011;5824;49.336;8.652;2023-02-03T01:55:57;4.70;;;2.77;;
11535;SDS011;5824;49.336;8.652;2023-02-03T01:58:26;6.70;;;2.90;;
11535;SDS011;5824;49.336;8.652;2023-02-03T02:00:54;4.77;;;2.80;;
11535;SDS011;5824;49.336;8.652;2023-02-03T02:03:22;5.23;;;2.87;;
11535;SDS011;5824;49.336;8.652;2023-02-03T02:06:00;3.60;;;2.33;;
11535;SDS011;5824;49.336;8.652;2023-02-03T02:08:29;4.47;;;2.97;;
11535;SDS011;5824;49.336;8.652;2023-02-03T02:10:55;5.60;;;2.70;;
11535;SDS011;5824;49.336;8.652;2023-02-03T02:13:21;6.43;;;3.00;;
11535;SDS011;5824;49.336;8.652;2023-02-03T02:15:50;4.90;;;2.77;;
11535;SDS011;5824;49.336;8.652;2023-02-03T02:18:31;6.03;;;3.23;;
11535;SDS011;5824;49.336;8.652;2023-02-03T02:21:10;5.30;;;2.60;;
11535;SDS011;5824;49.336;8.652;2023-02-03T02:29:09;3.20;;;2.60;;
11535;SDS011;5824;49.336;8.652;2023-02-03T02:31:53;6.43;;;3.00;;
11535;SDS011;5824;49.336;8.652;2023-02-03T02:34:56;4.50;;;2.40;;
11535;SDS011;5824;49.336;8.652;2023-02-03T02:37:33;7.50;;;2.90;;
11535;SDS011;5824;49.336;8.652;2023-02-03T02:40:20;2.87;;;2.23;;
11535;SDS011;5824;49.336;8.652;2023-02-03T02:42:59;5.73;;;2.83;;
11535;SDS011;5824;49.336;8.652;2023-02-03T02:45:38;4.53;;;2.87;;
11535;SDS011;5824;49.336;8.652;2023-02-03T02:48:07;3.03;;;2.30;;
11535;SDS011;5824;49.336;8.652;2023-02-03T02:50:40;2.80;;;2.30;;
11535;SDS011;5824;49.336;8.652;2023-02-03T02:53:09;4.30;;;2.63;;
11535;SDS011;5824;49.336;8.652;2023-02-03T02:55:37;5.80;;;2.03;;
11535;SDS011;5824;49.336;8.652;2023-02-03T02:58:07;3.10;;;2.40;;
11535;SDS011;5824;49.336;8.652;2023-02-03T03:00:35;5.00;;;2.87;;
11535;SDS011;5824;49.336;8.652;2023-02-03T03:03:18;2.83;;;2.30;;
11535;SDS011;5824;49.336;8.652;2023-02-03T03:05:49;4.40;;;2.87;;
11535;SDS011;5824;49.336;8.652;2023-02-03T03:08:29;3.70;;;2.20;;
11535;SDS011;5824;49.336;8.652;2023-02-03T03:10:59;6.10;;;2.30;;
11535;SDS011;5824;49.336;8.652;2023-02-03T03:13:28;4.10;;;2.80;;
11535;SDS011;5824;49.336;8.652;2023-02-03T03:16:02;4.90;;;2.37;;
11535;SDS011;5824;49.336;8.652;2023-02-03T03:21:40;3.67;;;3.07;;
11535;SDS011;5824;49.336;8.652;2023-02-03T03:24:11;3.67;;;2.10;;
11535;SDS011;5824;49.336;8.652;2023-02-03T03:26:51;4.40;;;2.27;;
11535;SDS011;5824;49.336;8.652;2023-02-03T03:29:32;4.57;;;2.10;;
11535;SDS011;5824;49.336;8.652;2023-02-03T03:32:04;2.80;;;2.40;;
11535;SDS011;5824;49.336;8.652;2023-02-03T03:34:29;4.10;;;2.30;;
11535;SDS011;5824;49.336;8.652;2023-02-03T03:37:17;2.73;;;2.33;;
11535;SDS011;5824;49.336;8.652;2023-02-03T03:45:25;2.93;;;2.30;;
11535;SDS011;5824;49.336;8.652;2023-02-03T03:50:51;3.63;;;2.37;;
11535;SDS011;5824;49.336;8.652;2023-02-03T03:53:21;4.93;;;2.63;;
11535;SDS011;5824;49.336;8.652;2023-02-03T03:55:49;3.10;;;2.47;;
11535;SDS011;5824;49.336;8.652;2023-02-03T03:58:18;5.50;;;2.83;;
11535;SDS011;5824;49.336;8.652;2023-02-03T04:00:48;4.30;;;3.00;;
11535;SDS011;5824;49.336;8.652;2023-02-03T04:03:20;4.17;;;2.57;;
11535;SDS011;5824;49.336;8.652;2023-02-03T04:05:54;4.40;;;2.73;;
11535;SDS011;5824;49.336;8.652;2023-02-03T04:08:19;3.87;;;2.90;;
11535;SDS011;5824;49.336;8.652;2023-02-03T04:10:45;4.30;;;2.70;;
11535;SDS011;5824;49.336;8.652;2023-02-03T04:13:11;3.67;;;2.90;;
11535;SDS011;5824;49.336;8.652;2023-02-03T04:15:37;5.73;;;3.03;;
11535;SDS011;5824;49.336;8.652;2023-02-03T04:18:02;4.83;;;2.60;;
11535;SDS011;5824;49.336;8.652;2023-02-03T04:20:29;3.20;;;2.53;;
11535;SDS011;5824;49.336;8.652;2023-02-03T04:22:55;7.73;;;3.13;;
11535;SDS011;5824;49.336;8.652;2023-02-03T04:25:22;4.20;;;3.27;;
11535;SDS011;5824;49.336;8.652;2023-02-03T04:27:48;6.77;;;3.27;;
11535;SDS011;5824;49.336;8.652;2023-02-03T04:30:13;4.70;;;3.07;;
11535;SDS011;5824;49.336;8.652;2023-02-03T04:32:39;5.30;;;3.40;;
11535;SDS011;5824;49.336;8.652;2023-02-03T04:35:05;5.50;;;3.50;;
11535;SDS011;5824;49.336;8.652;2023-02-03T04:37:32;12.07;;;3.53;;
11535;SDS011;5824;49.336;8.652;2023-02-03T04:39:58;10.20;;;3.47;;
11535;SDS011;5824;49.336;8.652;2023-02-03T04:42:24;8.03;;;3.30;;
11535;SDS011;5824;49.336;8.652;2023-02-03T04:44:50;5.70;;;3.20;;
11535;SDS011;5824;49.336;8.652;2023-02-03T04:47:16;3.40;;;3.10;;
11535;SDS011;5824;49.336;8.652;2023-02-03T04:49:42;3.70;;;2.80;;
11535;SDS011;5824;49.336;8.652;2023-02-03T04:52:08;3.73;;;3.23;;
11535;SDS011;5824;49.336;8.652;2023-02-03T04:54:34;9.30;;;3.60;;
11535;SDS011;5824;49.336;8.652;2023-02-03T04:57:00;5.00;;;3.27;;
11535;SDS011;5824;49.336;8.652;2023-02-03T04:59:25;6.40;;;3.60;;
11535;SDS011;5824;49.336;8.652;2023-02-03T05:01:51;3.63;;;2.90;;
11535;SDS011;5824;49.336;8.652;2023-02-03T05:04:17;3.87;;;3.10;;
11535;SDS011;5824;49.336;8.652;2023-02-03T05:06:42;5.20;;;3.30;;
11535;SDS011;5824;49.336;8.652;2023-02-03T05:09:08;5.17;;;3.30;;
11535;SDS011;5824;49.336;8.652;2023-02-03T05:11:33;3.77;;;3.03;;
11535;SDS011;5824;49.336;8.652;2023-02-03T05:13:59;4.23;;;2.90;;
11535;SDS011;5824;49.336;8.652;2023-02-03T05:16:24;5.30;;;3.30;;
11535;SDS011;5824;49.336;8.652;2023-02-03T05:18:50;7.63;;;3.53;;
11535;SDS011;5824;49.336;8.652;2023-02-03T05:21:16;5.17;;;3.40;;
11535;SDS011;5824;49.336;8.652;2023-02-03T05:23:42;3.63;;;2.93;;
11535;SDS011;5824;49.336;8.652;2023-02-03T05:26:07;6.83;;;3.10;;
11535;SDS011;5824;49.336;8.652;2023-02-03T05:28:33;4.93;;;3.00;;
11535;SDS011;5824;49.336;8.652;2023-02-03T05:30:59;4.40;;;3.20;;
11535;SDS011;5824;49.336;8.652;2023-02-03T05:33:25;5.10;;;3.60;;
11535;SDS011;5824;49.336;8.652;2023-02-03T05:35:51;5.20;;;3.10;;
11535;SDS011;5824;49.336;8.652;2023-02-03T05:38:17;5.63;;;3.03;;
11535;SDS011;5824;49.336;8.652;2023-02-03T05:40:42;7.63;;;3.33;;
11535;SDS011;5824;49.336;8.652;2023-02-03T05:43:27;4.07;;;3.23;;
11535;SDS011;5824;49.336;8.652;2023-02-03T05:45:53;5.40;;;3.20;;
11535;SDS011;5824;49.336;8.652;2023-02-03T05:48:19;3.93;;;2.90;;
11535;SDS011;5824;49.336;8.652;2023-02-03T05:50:44;4.20;;;3.23;;
11535;SDS011;5824;49.336;8.652;2023-02-03T05:53:10;8.50;;;3.33;;
11535;SDS011;5824;49.336;8.652;2023-02-03T05:55:36;6.17;;;3.57;;
11535;SDS011;5824;49.336;8.652;2023-02-03T05:58:02;4.20;;;3.30;;
11535;SDS011;5824;49.336;8.652;2023-02-03T06:00:28;4.50;;;3.77;;
11535;SDS011;5824;49.336;8.652;2023-02-03T06:02:55;6.00;;;4.07;;
11535;SDS011;5824;49.336;8.652;2023-02-03T06:05:22;6.30;;;4.00;;
11535;SDS011;5824;49.336;8.652;2023-02-03T06:07:49;6.10;;;3.40;;
11535;SDS011;5824;49.336;8.652;2023-02-03T06:10:15;5.60;;;3.30;;
11535;SDS011;5824;49.336;8.652;2023-02-03T06:12:41;6.20;;;3.60;;
11535;SDS011;5824;49.336;8.652;2023-02-03T06:15:07;7.50;;;3.77;;
11535;SDS011;5824;49.336;8.652;2023-02-03T06:17:34;6.23;;;3.80;;
11535;SDS011;5824;49.336;8.652;2023-02-03T06:20:00;7.30;;;3.60;;
11535;SDS011;5824;49.336;8.652;2023-02-03T06:22:29;6.47;;;3.63;;
11535;SDS011;5824;49.336;8.652;2023-02-03T06:24:55;5.17;;;3.60;;
11535;SDS011;5824;49.336;8.652;2023-02-03T06:27:20;7.87;;;3.60;;
11535;SDS011;5824;49.336;8.652;2023-02-03T06:29:46;3.90;;;3.10;;
11535;SDS011;5824;49.336;8.652;2023-02-03T06:32:11;6.13;;;3.50;;
11535;SDS011;5824;49.336;8.652;2023-02-03T06:34:37;6.23;;;3.83;;
11535;SDS011;5824;49.336;8.652;2023-02-03T06:37:02;5.73;;;4.03;;
11535;SDS011;5824;49.336;8.652;2023-02-03T06:39:28;5.00;;;3.50;;
11535;SDS011;5824;49.336;8.652;2023-02-03T06:41:53;4.30;;;3.57;;
11535;SDS011;5824;49.336;8.652;2023-02-03T06:44:20;5.33;;;3.33;;
11535;SDS011;5824;49.336;8.652;2023-02-03T06:46:46;7.27;;;3.33;;
11535;SDS011;5824;49.336;8.652;2023-02-03T06:49:12;7.10;;;4.13;;
11535;SDS011;5824;49.336;8.652;2023-02-03T06:51:37;6.20;;;3.67;;
11535;SDS011;5824;49.336;8.652;2023-02-03T06:54:03;4.53;;;3.37;;
11535;SDS011;5824;49.336;8.652;2023-02-03T06:56:29;6.23;;;3.80;;
11535;SDS011;5824;49.336;8.652;2023-02-03T06:58:55;5.40;;;3.90;;
11535;SDS011;5824;49.336;8.652;2023-02-03T07:01:21;6.13;;;3.90;;
11535;SDS011;5824;49.336;8.652;2023-02-03T07:03:47;8.50;;;3.90;;
11535;SDS011;5824;49.336;8.652;2023-02-03T07:06:13;5.73;;;3.90;;
11535;SDS011;5824;49.336;8.652;2023-02-03T07:08:38;6.30;;;3.63;;
11535;SDS011;5824;49.336;8.652;2023-02-03T07:11:05;6.47;;;3.53;;
11535;SDS011;5824;49.336;8.652;2023-02-03T07:13:31;5.70;;;4.03;;
11535;SDS011;5824;49.336;8.652;2023-02-03T07:15:56;7.33;;;4.27;;
11535;SDS011;5824;49.336;8.652;2023-02-03T07:18:22;6.53;;;3.90;;
11535;SDS011;5824;49.336;8.652;2023-02-03T07:20:49;6.53;;;3.77;;
11535;SDS011;5824;49.336;8.652;2023-02-03T07:23:15;6.80;;;4.50;;
11535;SDS011;5824;49.336;8.652;2023-02-03T07:25:41;4.93;;;4.00;;
11535;SDS011;5824;49.336;8.652;2023-02-03T07:28:07;7.43;;;4.30;;
11535;SDS011;5824;49.336;8.652;2023-02-03T07:30:32;6.40;;;4.10;;
11535;SDS011;5824;49.336;8.652;2023-02-03T07:32:58;5.37;;;4.10;;
11535;SDS011;5824;49.336;8.652;2023-02-03T07:35:23;4.30;;;3.80;;
11535;SDS011;5824;49.336;8.652;2023-02-03T07:37:49;7.43;;;4.00;;
11535;SDS011;5824;49.336;8.652;2023-02-03T07:40:15;9.23;;;3.70;;
11535;SDS011;5824;49.336;8.652;2023-02-03T07:42:41;5.83;;;3.60;;
11535;SDS011;5824;49.336;8.652;2023-02-03T07:45:08;5.60;;;3.17;;
11535;SDS011;5824;49.336;8.652;2023-02-03T07:47:35;5.10;;;3.40;;
11535;SDS011;5824;49.336;8.652;2023-02-03T07:50:00;5.00;;;3.80;;
11535;SDS011;5824;49.336;8.652;2023-02-03T07:52:26;8.20;;;3.30;;
11535;SDS011;5824;49.336;8.652;2023-02-03T07:54:51;5.70;;;3.27;;
11535;SDS011;5824;49.336;8.652;2023-02-03T07:57:17;3.87;;;3.20;;
11535;SDS011;5824;49.336;8.652;2023-02-03T07:59:42;4.13;;;3.00;;
11535;SDS011;5824;49.336;8.652;2023-02-03T08:02:08;4.00;;;3.10;;
11535;SDS011;5824;49.336;8.652;2023-02-03T08:04:35;4.10;;;3.20;;
11535;SDS011;5824;49.336;8.652;2023-02-03T08:07:01;4.70;;;2.67;;
11535;SDS011;5824;49.336;8.652;2023-02-03T08:09:27;6.93;;;3.27;;
11535;SDS011;5824;49.336;8.652;2023-02-03T08:11:53;6.90;;;3.30;;
11535;SDS011;5824;49.336;8.652;2023-02-03T08:14:18;6.67;;;3.33;;
11535;SDS011;5824;49.336;8.652;2023-02-03T08:16:44;6.53;;;3.30;;
11535;SDS011;5824;49.336;8.652;2023-02-03T08:19:10;5.53;;;2.80;;
11535;SDS011;5824;49.336;8.652;2023-02-03T08:21:36;5.00;;;3.00;;
11535;SDS011;5824;49.336;8.652;2023-02-03T08:24:02;4.00;;;2.87;;
11535;SDS011;5824;49.336;8.652;2023-02-03T08:26:27;4.27;;;3.00;;
11535;SDS011;5824;49.336;8.652;2023-02-03T08:28:53;3.33;;;3.00;;
11535;SDS011;5824;49.336;8.652;2023-02-03T08:31:18;4.50;;;3.00;;
11535;SDS011;5824;49.336;8.652;2023-02-03T08:33:44;4.10;;;3.20;;
11535;SDS011;5824;49.336;8.652;2023-02-03T08:36:10;3.67;;;3.00;;
11535;SDS011;5824;49.336;8.652;2023-02-03T08:38:36;6.07;;;2.90;;
11535;SDS011;5824;49.336;8.652;2023-02-03T08:41:07;4.37;;;3.00;;
11535;SDS011;5824;49.336;8.652;2023-02-03T08:43:33;3.90;;;2.50;;
11535;SDS011;5824;49.336;8.652;2023-02-03T08:46:04;3.87;;;2.80;;
11535;SDS011;5824;49.336;8.652;2023-02-03T08:48:30;6.03;;;2.90;;
11535;SDS011;5824;49.336;8.652;2023-02-03T08:50:56;6.53;;;2.77;;
11535;SDS011;5824;49.336;8.652;2023-02-03T08:53:21;4.50;;;2.83;;
11535;SDS011;5824;49.336;8.652;2023-02-03T08:55:47;3.63;;;3.17;;
11535;SDS011;5824;49.336;8.652;2023-02-03T08:58:12;3.37;;;2.90;;
11535;SDS011;5824;49.336;8.652;2023-02-03T09:00:38;3.80;;;3.10;;
11535;SDS011;5824;49.336;8.652;2023-02-03T09:03:03;3.70;;;2.80;;
11535;SDS011;5824;49.336;8.652;2023-02-03T09:05:29;3.70;;;2.50;;
11535;SDS011;5824;49.336;8.652;2023-02-03T09:07:55;4.53;;;3.17;;
11535;SDS011;5824;49.336;8.652;2023-02-03T09:10:21;5.33;;;2.97;;
11535;SDS011;5824;49.336;8.652;2023-02-03T09:12:46;6.10;;;2.97;;
11535;SDS011;5824;49.336;8.652;2023-02-03T09:15:12;3.43;;;2.77;;
11535;SDS011;5824;49.336;8.652;2023-02-03T09:17:38;2.97;;;2.77;;
11535;SDS011;5824;49.336;8.652;2023-02-03T09:20:04;3.70;;;3.10;;
11535;SDS011;5824;49.336;8.652;2023-02-03T09:22:30;3.60;;;2.63;;
11535;SDS011;5824;49.336;8.652;2023-02-03T09:24:55;3.00;;;2.70;;
11535;SDS011;5824;49.336;8.652;2023-02-03T09:27:21;4.70;;;2.60;;
11535;SDS011;5824;49.336;8.652;2023-02-03T09:29:46;2.50;;;2.30;;
11535;SDS011;5824;49.336;8.652;2023-02-03T09:32:12;3.40;;;2.40;;
11535;SDS011;5824;49.336;8.652;2023-02-03T09:34:37;3.70;;;2.90;;
11535;SDS011;5824;49.336;8.652;2023-02-03T09:37:05;4.93;;;2.90;;
11535;SDS011;5824;49.336;8.652;2023-02-03T09:39:31;4.23;;;2.80;;
11535;SDS011;5824;49.336;8.652;2023-02-03T09:42:03;3.80;;;2.80;;
11535;SDS011;5824;49.336;8.652;2023-02-03T09:44:46;4.83;;;3.10;;
11535;SDS011;5824;49.336;8.652;2023-02-03T09:47:16;3.63;;;2.80;;
11535;SDS011;5824;49.336;8.652;2023-02-03T09:49:46;3.53;;;3.07;;
11535;SDS011;5824;49.336;8.652;2023-02-03T09:52:37;4.20;;;3.10;;
11535;SDS011;5824;49.336;8.652;2023-02-03T09:55:24;5.93;;;3.10;;
11535;SDS011;5824;49.336;8.652;2023-02-03T09:57:55;5.50;;;3.07;;
11535;SDS011;5824;49.336;8.652;2023-02-03T10:03:08;5.70;;;2.70;;
11535;SDS011;5824;49.336;8.652;2023-02-03T10:05:55;3.30;;;2.30;;
11535;SDS011;5824;49.336;8.652;2023-02-03T10:11:19;3.23;;;2.50;;
11535;SDS011;5824;49.336;8.652;2023-02-03T10:16:56;4.37;;;2.40;;
11535;SDS011;5824;49.336;8.652;2023-02-03T10:19:47;4.77;;;2.70;;
11535;SDS011;5824;49.336;8.652;2023-02-03T10:22:20;7.30;;;2.63;;
11535;SDS011;5824;49.336;8.652;2023-02-03T10:24:56;2.57;;;2.37;;
11535;SDS011;5824;49.336;8.652;2023-02-03T10:27:31;5.53;;;2.27;;
11535;SDS011;5824;49.336;8.652;2023-02-03T10:33:08;4.80;;;3.50;;
11535;SDS011;5824;49.336;8.652;2023-02-03T10:35:42;4.43;;;2.30;;
11535;SDS011;5824;49.336;8.652;2023-02-03T10:40:57;2.90;;;2.57;;
11535;SDS011;5824;49.336;8.652;2023-02-03T10:43:23;3.10;;;2.70;;
11535;SDS011;5824;49.336;8.652;2023-02-03T10:46:07;3.83;;;2.53;;
11535;SDS011;5824;49.336;8.652;2023-02-03T10:48:33;3.63;;;2.40;;
11535;SDS011;5824;49.336;8.652;2023-02-03T10:50:58;3.20;;;2.33;;
11535;SDS011;5824;49.336;8.652;2023-02-03T10:53:33;4.27;;;2.50;;
11535;SDS011;5824;49.336;8.652;2023-02-03T10:56:08;2.53;;;2.33;;
11535;SDS011;5824;49.336;8.652;2023-02-03T10:58:36;3.10;;;2.33;;
11535;SDS011;5824;49.336;8.652;2023-02-03T11:01:04;5.90;;;2.20;;
11535;SDS011;5824;49.336;8.652;2023-02-03T11:03:30;2.40;;;2.10;;
11535;SDS011;5824;49.336;8.652;2023-02-03T11:06:15;5.63;;;2.30;;
11535;SDS011;5824;49.336;8.652;2023-02-03T11:08:43;2.60;;;2.40;;
11535;SDS011;5824;49.336;8.652;2023-02-03T11:11:14;3.80;;;2.70;;
11535;SDS011;5824;49.336;8.652;2023-02-03T11:13:45;2.60;;;2.40;;
11535;SDS011;5824;49.336;8.652;2023-02-03T11:16:13;5.10;;;2.50;;
11535;SDS011;5824;49.336;8.652;2023-02-03T11:18:50;4.47;;;2.67;;
11535;SDS011;5824;49.336;8.652;2023-02-03T11:21:23;2.60;;;2.40;;
11535;SDS011;5824;49.336;8.652;2023-02-03T11:24:17;2.83;;;2.23;;
11535;SDS011;5824;49.336;8.652;2023-02-03T11:27:28;2.07;;;1.90;;
11535;SDS011;5824;49.336;8.652;2023-02-03T11:29:31;2.70;;;2.10;;
11535;SDS011;5824;49.336;8.652;2023-02-03T11:32:21;2.53;;;1.70;;
11535;SDS011;5824;49.336;8.652;2023-02-03T11:34:57;7.10;;;2.00;;
11535;SDS011;5824;49.336;8.652;2023-02-03T11:37:36;2.20;;;2.00;;
11535;SDS011;5824;49.336;8.652;2023-02-03T11:42:31;2.10;;;1.90;;
11535;SDS011;5824;49.336;8.652;2023-02-03T11:47:53;2.57;;;2.10;;
11535;SDS011;5824;49.336;8.652;2023-02-03T11:56:06;1.70;;;1.60;;
11535;SDS011;5824;49.336;8.652;2023-02-03T12:03:57;1.60;;;1.40;;
11535;SDS011;5824;49.336;8.652;2023-02-03T12:13:04;2.30;;;1.77;;
11535;SDS011;5824;49.336;8.652;2023-02-03T12:18:32;1.53;;;1.23;;
11535;SDS011;5824;49.336;8.652;2023-02-03T12:21:44;1.30;;;1.20;;
11535;SDS011;5824;49.336;8.652;2023-02-03T12:24:35;2.90;;;1.40;;
11535;SDS011;5824;49.336;8.652;2023-02-03T12:29:57;2.40;;;1.20;;
11535;SDS011;5824;49.336;8.652;2023-02-03T12:32:36;1.60;;;1.50;;
11535;SDS011;5824;49.336;8.652;2023-02-03T12:35:11;1.17;;;1.07;;
11535;SDS011;5824;49.336;8.652;2023-02-03T12:46:23;1.20;;;1.00;;
11535;SDS011;5824;49.336;8.652;2023-02-03T12:48:49;1.63;;;1.20;;
11535;SDS011;5824;49.336;8.652;2023-02-03T12:51:27;1.27;;;1.07;;
11535;SDS011;5824;49.336;8.652;2023-02-03T12:54:19;1.60;;;1.50;;
11535;SDS011;5824;49.336;8.652;2023-02-03T12:57:09;2.53;;;1.23;;
11535;SDS011;5824;49.336;8.652;2023-02-03T12:59:47;1.30;;;1.20;;
11535;SDS011;5824;49.336;8.652;2023-02-03T13:02:27;1.53;;;1.00;;
11535;SDS011;5824;49.336;8.652;2023-02-03T13:04:58;1.73;;;1.27;;
11535;SDS011;5824;49.336;8.652;2023-02-03T13:07:34;1.37;;;0.93;;
11535;SDS011;5824;49.336;8.652;2023-02-03T13:13:04;2.23;;;1.10;;
11535;SDS011;5824;49.336;8.652;2023-02-03T13:15:34;1.73;;;1.20;;
11535;SDS011;5824;49.336;8.652;2023-02-03T13:21:09;2.23;;;1.30;;
11535;SDS011;5824;49.336;8.652;2023-02-03T13:23:40;1.30;;;1.20;;
11535;SDS011;5824;49.336;8.652;2023-02-03T13:26:27;1.73;;;1.37;;
11535;SDS011;5824;49.336;8.652;2023-02-03T13:34:48;1.27;;;1.17;;
11535;SDS011;5824;49.336;8.652;2023-02-03T13:37:29;1.77;;;1.20;;
11535;SDS011;5824;49.336;8.652;2023-02-03T13:40:12;1.53;;;1.20;;
11535;SDS011;5824;49.336;8.652;2023-02-03T13:42:45;3.70;;;1.03;;
11535;SDS011;5824;49.336;8.652;2023-02-03T13:45:24;1.10;;;1.00;;
11535;SDS011;5824;49.336;8.652;2023-02-03T13:48:13;1.60;;;1.20;;
11535;SDS011;5824;49.336;8.652;2023-02-03T13:50:46;1.10;;;0.90;;
11535;SDS011;5824;49.336;8.652;2023-02-03T13:53:17;1.17;;;1.00;;
11535;SDS011;5824;49.336;8.652;2023-02-03T13:55:52;1.20;;;1.00;;
11535;SDS011;5824;49.336;8.652;2023-02-03T13:58:22;1.43;;;0.80;;
11535;SDS011;5824;49.336;8.652;2023-02-03T14:05:51;1.10;;;0.90;;
11535;SDS011;5824;49.336;8.652;2023-02-03T14:13:53;1.30;;;1.10;;
11535;SDS011;5824;49.336;8.652;2023-02-03T14:16:36;1.20;;;1.10;;
11535;SDS011;5824;49.336;8.652;2023-02-03T14:21:53;1.20;;;1.10;;
11535;SDS011;5824;49.336;8.652;2023-02-03T14:24:38;1.10;;;0.90;;
11535;SDS011;5824;49.336;8.652;2023-02-03T14:27:16;1.40;;;1.23;;
11535;SDS011;5824;49.336;8.652;2023-02-03T14:29:44;2.40;;;1.13;;
11535;SDS011;5824;49.336;8.652;2023-02-03T14:32:10;1.10;;;0.90;;
11535;SDS011;5824;49.336;8.652;2023-02-03T14:34:43;1.10;;;0.93;;
11535;SDS011;5824;49.336;8.652;2023-02-03T14:37:12;1.40;;;1.10;;
11535;SDS011;5824;49.336;8.652;2023-02-03T14:56:46;1.20;;;1.03;;
11535;SDS011;5824;49.336;8.652;2023-02-03T14:59:43;1.20;;;1.10;;
11535;SDS011;5824;49.336;8.652;2023-02-03T15:02:11;1.50;;;1.00;;
11535;SDS011;5824;49.336;8.652;2023-02-03T15:04:41;1.23;;;1.10;;
11535;SDS011;5824;49.336;8.652;2023-02-03T15:07:07;1.13;;;1.03;;
11535;SDS011;5824;49.336;8.652;2023-02-03T15:09:43;2.07;;;1.43;;
11535;SDS011;5824;49.336;8.652;2023-02-03T15:12:15;1.47;;;1.30;;
11535;SDS011;5824;49.336;8.652;2023-02-03T15:14:46;1.47;;;1.10;;
11535;SDS011;5824;49.336;8.652;2023-02-03T15:17:19;1.03;;;0.93;;
11535;SDS011;5824;49.336;8.652;2023-02-03T15:19:48;1.30;;;1.20;;
11535;SDS011;5824;49.336;8.652;2023-02-03T15:22:27;2.20;;;1.27;;
11535;SDS011;5824;49.336;8.652;2023-02-03T15:24:58;1.20;;;1.10;;
11535;SDS011;5824;49.336;8.652;2023-02-03T15:27:30;1.30;;;1.20;;
11535;SDS011;5824;49.336;8.652;2023-02-03T15:29:56;2.00;;;1.77;;
11535;SDS011;5824;49.336;8.652;2023-02-03T15:32:33;1.93;;;1.70;;
11535;SDS011;5824;49.336;8.652;2023-02-03T15:35:05;2.27;;;1.67;;
11535;SDS011;5824;49.336;8.652;2023-02-03T15:40:14;1.60;;;1.50;;
11535;SDS011;5824;49.336;8.652;2023-02-03T15:42:51;1.87;;;1.70;;
11535;SDS011;5824;49.336;8.652;2023-02-03T15:47:53;2.90;;;2.33;;
11535;SDS011;5824;49.336;8.652;2023-02-03T15:50:31;3.57;;;2.20;;
11535;SDS011;5824;49.336;8.652;2023-02-03T15:53:06;4.00;;;2.70;;
11535;SDS011;5824;49.336;8.652;2023-02-03T15:55:42;1.80;;;1.30;;
11535;SDS011;5824;49.336;8.652;2023-02-03T16:00:52;3.67;;;1.60;;
11535;SDS011;5824;49.336;8.652;2023-02-03T16:03:21;4.63;;;1.73;;
11535;SDS011;5824;49.336;8.652;2023-02-03T16:05:56;5.57;;;2.40;;
11535;SDS011;5824;49.336;8.652;2023-02-03T16:09:00;1.63;;;1.33;;
11535;SDS011;5824;49.336;8.652;2023-02-03T16:13:54;2.37;;;1.40;;
11535;SDS011;5824;49.336;8.652;2023-02-03T16:16:25;1.83;;;1.73;;
11535;SDS011;5824;49.336;8.652;2023-02-03T16:23:54;2.33;;;1.80;;
11535;SDS011;5824;49.336;8.652;2023-02-03T16:26:21;1.40;;;1.30;;
11535;SDS011;5824;49.336;8.652;2023-02-03T16:29:09;1.60;;;1.50;;
11535;SDS011;5824;49.336;8.652;2023-02-03T16:31:55;1.37;;;1.27;;
11535;SDS011;5824;49.336;8.652;2023-02-03T16:34:40;2.20;;;1.90;;
11535;SDS011;5824;49.336;8.652;2023-02-03T16:37:25;2.40;;;2.20;;
11535;SDS011;5824;49.336;8.652;2023-02-03T16:40:12;2.23;;;1.50;;
11535;SDS011;5824;49.336;8.652;2023-02-03T16:43:00;2.30;;;1.70;;
11535;SDS011;5824;49.336;8.652;2023-02-03T16:45:45;3.00;;;1.80;;
11535;SDS011;5824;49.336;8.652;2023-02-03T16:48:34;1.70;;;1.60;;
11535;SDS011;5824;49.336;8.652;2023-02-03T16:51:17;1.70;;;1.60;;
11535;SDS011;5824;49.336;8.652;2023-02-03T16:53:45;1.90;;;1.80;;
11535;SDS011;5824;49.336;8.652;2023-02-03T16:56:12;1.70;;;1.60;;
11535;SDS011;5824;49.336;8.652;2023-02-03T16:58:38;1.87;;;1.60;;
11535;SDS011;5824;49.336;8.652;2023-02-03T17:01:05;2.40;;;2.07;;
11535;SDS011;5824;49.336;8.652;2023-02-03T17:03:32;1.63;;;1.53;;
11535;SDS011;5824;49.336;8.652;2023-02-03T17:06:03;1.70;;;1.60;;
11535;SDS011;5824;49.336;8.652;2023-02-03T17:08:31;2.60;;;1.93;;
11535;SDS011;5824;49.336;8.652;2023-02-03T17:11:01;2.50;;;2.20;;
11535;SDS011;5824;49.336;8.652;2023-02-03T17:13:28;4.07;;;1.80;;
11535;SDS011;5824;49.336;8.652;2023-02-03T17:15:54;1.90;;;1.50;;
11535;SDS011;5824;49.336;8.652;2023-02-03T17:18:19;1.70;;;1.60;;
11535;SDS011;5824;49.336;8.652;2023-02-03T17:20:45;1.73;;;1.63;;
11535;SDS011;5824;49.336;8.652;2023-02-03T17:23:11;2.03;;;1.60;;
11535;SDS011;5824;49.336;8.652;2023-02-03T17:25:43;1.70;;;1.60;;
11535;SDS011;5824;49.336;8.652;2023-02-03T17:28:10;2.43;;;1.90;;